KISP

Long Island Mac Arthur Airport

New York, New York, USA
METAR KISP 231056Z 25004KT 2SM BR SCT003 BKN120 BKN180 BKN250 15/15 A2990 RMK SFC VIS 4 SLP125 T01500150
Observed Flight Rules
May-23 @ 10:56 UTC (20 minutes ago) Instrument Flight Rules
Wind Visibility Clouds Conditions
250° at 4 knots 2 miles
  • Scattered at 300' AGL
  • Broken at 12,000' AGL
  • Broken at 18,000' AGL
  • Broken at 25,000' AGL
  • Mist
Temperatures Readings
Current 15°C / 59°F
Dewpoint 15°C / 59°F
Humidity 100%
Altimeter 29.9" Hg
Pressure 1012.5 hPa
Elevation 43
METAR KISP 231056Z 25004KT 2SM BR SCT003 BKN120 BKN180 BKN250 15/15 A2990 RMK SFC VIS 4 SLP125 T01500150
Observed Flight Rules
May-23 @ 10:56 UTC
(20 minutes ago)
IFR
Wind Visibility
250° at 4 knots 2 miles
Clouds
  • Scattered at 300' AGL
  • Broken at 12,000' AGL
  • Broken at 18,000' AGL
  • Broken at 25,000' AGL
Conditions
  • Mist
Temperature Dewpoint
15°C / 59°F 15°C / 59°F
Humidity Altimeter Pressure
100% 29.9" Hg 1012.5 hPa